createdAt,value
2023-04-06T00:01:03.912Z,89.01
2023-04-06T00:03:30.937Z,90.86
2023-04-06T00:05:57.808Z,88.72
2023-04-06T00:08:25.013Z,88.24
2023-04-06T00:10:51.809Z,88.63
2023-04-06T00:13:18.540Z,87.30
2023-04-06T00:15:45.488Z,87.62
2023-04-06T00:18:12.539Z,88.93
2023-04-06T00:20:39.489Z,89.77
2023-04-06T00:23:06.667Z,90.96
2023-04-06T00:25:33.440Z,90.19
2023-04-06T00:28:00.597Z,88.76
2023-04-06T00:30:27.291Z,89.30
2023-04-06T00:32:54.097Z,90.01
2023-04-06T00:35:21.184Z,90.43
2023-04-06T00:37:49.276Z,91.05
2023-04-06T00:40:16.724Z,90.13
2023-04-06T00:42:43.518Z,91.37
2023-04-06T00:45:11.101Z,90.69
2023-04-06T00:47:38.136Z,91.26
2023-04-06T00:50:05.794Z,91.72
2023-04-06T00:52:32.578Z,91.64
2023-04-06T00:54:59.324Z,91.96
2023-04-06T00:57:26.065Z,92.08
2023-04-06T00:59:54.117Z,92.63
2023-04-06T01:02:21.071Z,92.97
2023-04-06T01:04:47.827Z,93.41
2023-04-06T01:07:14.544Z,92.86
2023-04-06T01:09:43.220Z,93.47
2023-04-06T01:12:10.264Z,93.40
2023-04-06T01:14:37.009Z,94.02
2023-04-06T01:17:03.910Z,93.21
2023-04-06T01:19:30.645Z,92.30
2023-04-06T01:21:57.504Z,93.21
2023-04-06T01:24:24.378Z,92.42
2023-04-06T01:26:51.083Z,93.16
2023-04-06T01:29:17.855Z,92.99
2023-04-06T01:31:44.592Z,93.64
2023-04-06T01:34:11.534Z,93.48
2023-04-06T01:36:38.277Z,92.21
2023-04-06T01:39:05.082Z,93.15
2023-04-06T01:41:32.185Z,92.24
2023-04-06T01:43:59.076Z,93.03
2023-04-06T01:46:25.921Z,93.35
2023-04-06T01:48:53.514Z,93.53
2023-04-06T01:51:20.911Z,94.01
2023-04-06T01:53:47.814Z,93.90
2023-04-06T01:56:14.635Z,93.04
2023-04-06T01:58:41.419Z,94.96
2023-04-06T02:01:08.347Z,95.00
2023-04-06T02:03:35.272Z,94.35
2023-04-06T02:06:02.010Z,93.71
2023-04-06T02:08:28.712Z,92.88
2023-04-06T02:10:55.482Z,93.53
2023-04-06T02:13:22.286Z,93.69
2023-04-06T02:15:49.148Z,92.98
2023-04-06T02:18:16.618Z,92.82
2023-04-06T02:20:43.589Z,93.22
2023-04-06T02:23:10.548Z,93.90
2023-04-06T02:25:37.601Z,94.02
2023-04-06T02:28:04.754Z,94.10
2023-04-06T02:30:33.090Z,93.80
2023-04-06T02:33:01.702Z,93.45
2023-04-06T02:35:29.738Z,93.94
2023-04-06T02:37:56.603Z,93.87
2023-04-06T02:40:23.572Z,93.58
2023-04-06T02:42:50.302Z,93.32
2023-04-06T02:45:17.528Z,92.79
2023-04-06T02:47:44.296Z,92.46
2023-04-06T02:50:11.407Z,92.33
2023-04-06T02:52:38.252Z,92.80
2023-04-06T02:55:05.969Z,93.08
2023-04-06T02:57:32.789Z,93.52
2023-04-06T02:59:59.600Z,93.21
2023-04-06T03:02:26.909Z,93.52
2023-04-06T03:04:53.709Z,93.64
2023-04-06T03:07:20.574Z,92.39
2023-04-06T03:09:47.388Z,91.50
2023-04-06T03:12:14.136Z,91.49
2023-04-06T03:14:40.882Z,92.49
2023-04-06T03:17:07.733Z,93.50
2023-04-06T03:19:34.442Z,94.33
2023-04-06T03:22:01.902Z,94.86
2023-04-06T03:24:28.702Z,95.42
2023-04-06T03:26:56.249Z,93.49
2023-04-06T03:29:23.208Z,92.37
2023-04-06T03:31:49.995Z,94.07
2023-04-06T03:34:17.125Z,94.34
2023-04-06T03:36:44.222Z,95.66
2023-04-06T03:39:11.075Z,95.13
2023-04-06T03:41:37.875Z,94.61
2023-04-06T03:44:04.871Z,94.27
2023-04-06T03:46:31.652Z,93.97
2023-04-06T03:48:58.598Z,94.41
2023-04-06T03:51:25.361Z,95.65
2023-04-06T03:53:52.654Z,95.31
2023-04-06T03:56:19.450Z,93.69
2023-04-06T03:58:46.761Z,93.97
2023-04-06T04:01:14.112Z,94.31
2023-04-06T04:03:41.070Z,93.88
2023-04-06T04:06:07.939Z,93.52
2023-04-06T04:08:34.999Z,93.70
2023-04-06T04:11:01.822Z,94.43
2023-04-06T04:13:28.889Z,95.15
2023-04-06T04:15:55.648Z,95.27
2023-04-06T04:18:22.796Z,94.63
2023-04-06T04:20:49.561Z,93.85
2023-04-06T04:23:16.910Z,94.07
2023-04-06T04:25:44.989Z,94.53
2023-04-06T04:28:12.308Z,94.02
2023-04-06T04:30:39.051Z,93.07
2023-04-06T04:33:06.059Z,93.46
2023-04-06T04:35:32.784Z,94.22
2023-04-06T04:37:59.534Z,93.80
2023-04-06T04:40:26.414Z,93.92
2023-04-06T04:42:53.146Z,94.48
2023-04-06T04:45:20.018Z,94.79
2023-04-06T04:47:46.770Z,94.94
2023-04-06T04:50:13.498Z,94.97
2023-04-06T04:52:40.252Z,94.51
2023-04-06T04:55:07.387Z,94.52
2023-04-06T04:57:34.198Z,95.26
2023-04-06T05:00:01.036Z,95.50
2023-04-06T05:02:27.989Z,95.78
2023-04-06T05:04:54.879Z,96.34
2023-04-06T05:07:22.137Z,96.44
2023-04-06T05:09:49.221Z,95.08
2023-04-06T05:12:16.460Z,94.52
2023-04-06T05:14:43.385Z,94.45
2023-04-06T05:17:10.286Z,95.55
2023-04-06T05:19:37.102Z,96.27
2023-04-06T05:22:03.944Z,95.38
2023-04-06T05:24:30.728Z,94.95
2023-04-06T05:26:57.498Z,95.17
2023-04-06T05:29:24.334Z,95.13
2023-04-06T05:31:52.392Z,94.28
2023-04-06T05:34:19.194Z,94.57
2023-04-06T05:36:45.914Z,95.25
2023-04-06T05:39:13.738Z,95.22
2023-04-06T05:41:40.672Z,94.81
2023-04-06T05:44:07.480Z,94.24
2023-04-06T05:46:34.325Z,94.03
2023-04-06T05:49:01.608Z,93.87
2023-04-06T05:51:28.705Z,93.96
2023-04-06T05:53:55.467Z,93.85
2023-04-06T05:56:22.294Z,94.33
2023-04-06T05:58:49.052Z,94.53
2023-04-06T06:01:16.539Z,95.00
2023-04-06T06:03:43.460Z,95.00
2023-04-06T06:06:10.247Z,94.51
2023-04-06T06:08:37.340Z,94.23
2023-04-06T06:11:04.602Z,93.75
2023-04-06T06:13:31.447Z,93.78
2023-04-06T06:15:58.658Z,93.33
2023-04-06T06:18:25.785Z,93.09
2023-04-06T06:20:52.535Z,93.59
2023-04-06T06:23:19.257Z,93.42
2023-04-06T06:25:46.426Z,92.59
2023-04-06T06:28:13.622Z,91.76
2023-04-06T06:30:40.357Z,92.16
2023-04-06T06:33:07.248Z,91.90
2023-04-06T06:35:34.003Z,91.45
2023-04-06T06:38:01.031Z,89.98
2023-04-06T06:40:28.693Z,89.67
2023-04-06T06:42:55.535Z,88.92
2023-04-06T06:45:22.614Z,87.65
2023-04-06T06:47:49.573Z,86.64
2023-04-06T06:50:16.551Z,86.50
2023-04-06T06:52:44.304Z,85.61
2023-04-06T06:55:12.145Z,86.18
2023-04-06T06:57:39.832Z,86.96
2023-04-06T07:00:09.424Z,88.12
2023-04-06T07:02:37.526Z,86.81
2023-04-06T07:05:16.051Z,86.35
2023-04-06T07:07:51.168Z,85.89
2023-04-06T07:10:17.906Z,85.40
2023-04-06T07:12:44.810Z,85.20
2023-04-06T07:15:12.280Z,83.20
2023-04-06T07:17:39.060Z,84.01
2023-04-06T07:20:07.007Z,81.90
2023-04-06T07:22:33.774Z,79.16
2023-04-06T07:25:00.551Z,79.00
2023-04-06T07:27:27.517Z,80.33
2023-04-06T07:29:54.199Z,77.00
2023-04-06T07:32:21.069Z,74.40
2023-04-06T07:34:48.171Z,73.88
2023-04-06T07:37:14.996Z,75.58
2023-04-06T07:39:41.976Z,73.13
2023-04-06T07:42:08.780Z,69.38
2023-04-06T07:44:35.582Z,66.77
2023-04-06T07:47:02.366Z,70.53
2023-04-06T07:49:29.199Z,71.60
2023-04-06T07:51:56.195Z,69.72
2023-04-06T07:54:22.910Z,69.07
2023-04-06T07:56:49.638Z,67.89
2023-04-06T07:59:16.830Z,65.46
2023-04-06T08:01:43.650Z,65.57
2023-04-06T08:04:10.991Z,67.07
2023-04-06T08:06:38.012Z,62.84
2023-04-06T08:09:04.781Z,67.23
2023-04-06T08:11:31.546Z,65.52
2023-04-06T08:13:58.877Z,63.59
2023-04-06T08:16:25.969Z,64.33
2023-04-06T08:18:52.694Z,63.31
2023-04-06T08:21:19.663Z,63.43
2023-04-06T08:23:47.379Z,64.50
2023-04-06T08:26:14.396Z,63.43
2023-04-06T08:28:41.251Z,60.11
2023-04-06T08:31:08.286Z,60.81
2023-04-06T08:33:40.501Z,61.28
2023-04-06T08:36:15.164Z,60.59
2023-04-06T08:38:44.072Z,60.76
2023-04-06T08:41:14.961Z,61.02
2023-04-06T08:43:49.569Z,61.71
2023-04-06T08:46:16.752Z,60.71
2023-04-06T08:48:44.251Z,58.43
2023-04-06T08:51:14.782Z,58.91
2023-04-06T08:53:42.135Z,59.06
2023-04-06T08:56:11.326Z,62.71
2023-04-06T08:58:40.906Z,60.06
2023-04-06T09:01:10.204Z,58.70
2023-04-06T09:03:41.809Z,59.83
2023-04-06T09:06:09.666Z,57.71
2023-04-06T09:08:37.532Z,57.89
2023-04-06T09:11:04.744Z,56.87
2023-04-06T09:13:32.229Z,57.64
2023-04-06T09:16:03.540Z,55.25
2023-04-06T09:18:34.969Z,57.82
2023-04-06T09:21:06.717Z,56.02
2023-04-06T09:23:33.674Z,52.86
2023-04-06T09:26:12.404Z,52.80
2023-04-06T09:28:43.759Z,52.59
2023-04-06T09:31:13.445Z,51.31
2023-04-06T09:33:43.028Z,46.67
2023-04-06T09:36:12.668Z,47.19
2023-04-06T09:38:52.094Z,47.96
2023-04-06T09:41:26.799Z,47.18
2023-04-06T09:44:02.615Z,48.76
2023-04-06T09:46:43.009Z,48.09
2023-04-06T09:49:19.035Z,46.87
2023-04-06T09:51:55.649Z,45.86
2023-04-06T09:54:24.521Z,46.45
2023-04-06T09:57:22.274Z,44.87
2023-04-06T10:00:05.273Z,46.34
2023-04-06T10:03:21.766Z,45.21
2023-04-06T10:05:53.899Z,44.81
2023-04-06T10:08:26.667Z,45.27
2023-04-06T10:10:55.030Z,44.74
2023-04-06T10:13:22.235Z,44.91
2023-04-06T10:15:49.591Z,45.12
2023-04-06T10:18:17.243Z,45.20
2023-04-06T10:20:58.960Z,42.56
2023-04-06T10:23:32.708Z,43.40
2023-04-06T10:26:03.898Z,43.88
2023-04-06T10:28:37.094Z,43.19
2023-04-06T10:31:06.979Z,43.27
2023-04-06T10:33:34.880Z,43.58
2023-04-06T10:36:23.781Z,42.80
2023-04-06T10:38:56.821Z,41.88
2023-04-06T10:41:23.957Z,44.41
2023-04-06T10:43:58.032Z,42.41
2023-04-06T10:46:29.746Z,44.14
2023-04-06T10:48:57.529Z,43.68
2023-04-06T10:51:29.374Z,43.87
2023-04-06T10:53:57.159Z,43.26
2023-04-06T10:56:30.472Z,42.79
2023-04-06T10:59:01.265Z,44.08
2023-04-06T11:01:29.069Z,40.66
2023-04-06T11:03:59.399Z,41.09
2023-04-06T11:06:32.630Z,40.71
2023-04-06T11:08:59.689Z,40.38
2023-04-06T11:11:28.174Z,42.28
2023-04-06T11:13:57.665Z,41.77
2023-04-06T11:16:25.719Z,42.63
2023-04-06T11:19:03.234Z,41.86
2023-04-06T11:21:48.982Z,39.80
2023-04-06T11:24:23.457Z,39.27
2023-04-06T11:26:56.284Z,40.38
2023-04-06T11:29:29.408Z,40.27
2023-04-06T11:32:04.300Z,39.37
2023-04-06T11:34:32.283Z,39.53
2023-04-06T11:37:01.126Z,39.58
2023-04-06T11:39:29.675Z,39.14
2023-04-06T11:42:01.721Z,38.32
2023-04-06T11:44:36.943Z,38.76
2023-04-06T11:47:04.941Z,38.05
2023-04-06T11:49:33.134Z,37.48
2023-04-06T11:52:01.257Z,39.05
2023-04-06T11:54:42.192Z,36.90
2023-04-06T11:57:10.004Z,36.90
2023-04-06T11:59:37.401Z,37.44
2023-04-06T12:02:05.479Z,37.41
2023-04-06T12:04:32.682Z,37.09
2023-04-06T12:06:59.814Z,37.46
2023-04-06T12:09:26.715Z,36.47
2023-04-06T12:11:53.434Z,37.13
2023-04-06T12:14:21.354Z,36.87
2023-04-06T12:16:48.655Z,37.53
2023-04-06T12:19:15.787Z,37.49
2023-04-06T12:21:43.913Z,37.15
2023-04-06T12:24:10.779Z,36.26
2023-04-06T12:26:38.650Z,35.44
2023-04-06T12:29:09.084Z,34.90
2023-04-06T12:31:37.635Z,35.32
2023-04-06T12:34:05.104Z,35.29
2023-04-06T12:36:32.652Z,34.83
2023-04-06T12:38:59.598Z,36.04
2023-04-06T12:41:26.934Z,35.86
2023-04-06T12:43:53.789Z,35.58
2023-04-06T12:46:23.670Z,35.49
2023-04-06T12:48:58.932Z,35.35
2023-04-06T12:51:29.811Z,36.85
2023-04-06T12:53:57.053Z,35.83
2023-04-06T12:56:24.146Z,35.70
2023-04-06T12:58:52.992Z,35.68
2023-04-06T13:01:20.068Z,36.33
2023-04-06T13:03:47.101Z,37.31
2023-04-06T13:06:16.106Z,36.16
2023-04-06T13:08:44.094Z,36.22
2023-04-06T13:11:11.255Z,35.01
2023-04-06T13:13:38.476Z,34.94
2023-04-06T13:16:08.189Z,34.84
2023-04-06T13:18:35.976Z,35.67
2023-04-06T13:21:02.897Z,36.43
2023-04-06T13:23:29.756Z,35.44
2023-04-06T13:26:04.446Z,35.67
2023-04-06T13:28:32.188Z,35.72
2023-04-06T13:31:01.020Z,35.06
2023-04-06T13:33:28.072Z,35.44
2023-04-06T13:35:55.077Z,36.20
2023-04-06T13:38:22.122Z,36.08
2023-04-06T13:40:51.048Z,35.26
2023-04-06T13:43:21.083Z,34.82
2023-04-06T13:45:52.216Z,37.55
2023-04-06T13:48:19.825Z,36.19
2023-04-06T13:50:47.274Z,35.98
2023-04-06T13:53:17.678Z,36.07
2023-04-06T13:55:54.271Z,36.51
2023-04-06T13:58:21.276Z,36.04
2023-04-06T14:00:48.444Z,36.67
2023-04-06T14:03:18.885Z,36.77
2023-04-06T14:05:46.706Z,36.70
2023-04-06T14:08:13.466Z,36.34
2023-04-06T14:10:41.697Z,36.48
2023-04-06T14:13:09.365Z,36.55
2023-04-06T14:15:36.616Z,37.05
2023-04-06T14:18:03.716Z,36.99
2023-04-06T14:20:33.447Z,37.09
2023-04-06T14:23:04.058Z,37.53
2023-04-06T14:25:35.975Z,36.86
2023-04-06T14:28:03.400Z,36.46
2023-04-06T14:30:31.784Z,37.88
2023-04-06T14:32:59.484Z,37.82
2023-04-06T14:35:26.744Z,37.66
2023-04-06T14:37:54.041Z,38.00
2023-04-06T14:40:20.746Z,37.79
2023-04-06T14:42:47.866Z,37.56
2023-04-06T14:45:15.271Z,37.43
2023-04-06T14:47:42.046Z,37.88
2023-04-06T14:50:10.007Z,37.70
2023-04-06T14:52:37.631Z,38.22
2023-04-06T14:55:05.615Z,38.25
2023-04-06T14:57:32.541Z,38.15
2023-04-06T14:59:59.488Z,38.34
2023-04-06T15:02:27.051Z,37.92
2023-04-06T15:04:54.142Z,37.72
2023-04-06T15:07:21.808Z,38.14
2023-04-06T15:09:48.519Z,38.16
2023-04-06T15:12:15.260Z,37.60
2023-04-06T15:14:41.987Z,37.38
2023-04-06T15:17:08.701Z,36.18
2023-04-06T15:19:35.568Z,35.41
2023-04-06T15:22:02.335Z,37.13
2023-04-06T15:24:29.042Z,37.25
2023-04-06T15:26:57.171Z,36.72
2023-04-06T15:29:26.677Z,36.71
2023-04-06T15:31:53.482Z,37.51
2023-04-06T15:34:21.504Z,36.78
2023-04-06T15:36:48.280Z,36.37
2023-04-06T15:39:15.113Z,36.69
2023-04-06T15:41:41.809Z,35.92
2023-04-06T15:44:08.603Z,35.81
2023-04-06T15:46:36.336Z,34.84
2023-04-06T15:49:04.522Z,34.90
2023-04-06T15:51:32.118Z,34.28
2023-04-06T15:54:00.679Z,34.65
2023-04-06T15:56:27.405Z,35.08
2023-04-06T15:58:54.713Z,34.88
2023-04-06T16:01:21.685Z,34.92
2023-04-06T16:03:48.510Z,35.26
2023-04-06T16:06:16.065Z,35.71
2023-04-06T16:08:42.968Z,36.48
2023-04-06T16:11:10.509Z,36.28
2023-04-06T16:13:37.412Z,36.11
2023-04-06T16:16:05.841Z,36.82
2023-04-06T16:18:34.930Z,35.47
2023-04-06T16:21:03.927Z,35.35
2023-04-06T16:23:30.868Z,35.52
2023-04-06T16:26:01.058Z,35.68
2023-04-06T16:28:27.965Z,35.99
2023-04-06T16:30:55.348Z,36.61
2023-04-06T16:33:23.463Z,36.61
2023-04-06T16:35:50.314Z,37.08
2023-04-06T16:38:17.128Z,36.96
2023-04-06T16:40:43.907Z,37.58
2023-04-06T16:43:10.840Z,38.00
2023-04-06T16:45:38.775Z,38.82
2023-04-06T16:48:06.390Z,38.67
2023-04-06T16:50:33.888Z,39.27
2023-04-06T16:53:00.743Z,38.58
2023-04-06T16:55:27.464Z,38.58
2023-04-06T16:57:57.298Z,38.26
2023-04-06T17:00:24.246Z,38.47
2023-04-06T17:02:51.281Z,38.79
2023-04-06T17:05:24.932Z,38.68
2023-04-06T17:07:52.956Z,39.62
2023-04-06T17:10:28.639Z,40.72
2023-04-06T17:13:00.549Z,41.61
2023-04-06T17:15:28.647Z,42.90
2023-04-06T17:17:55.636Z,43.06
2023-04-06T17:20:22.833Z,44.26
2023-04-06T17:22:49.841Z,44.68
2023-04-06T17:25:16.951Z,45.55
2023-04-06T17:27:44.498Z,46.05
2023-04-06T17:30:12.503Z,46.25
2023-04-06T17:32:39.390Z,46.47
2023-04-06T17:35:06.597Z,46.27
2023-04-06T17:37:33.726Z,46.32
2023-04-06T17:40:00.795Z,47.36
2023-04-06T17:42:27.946Z,48.63
2023-04-06T17:44:54.632Z,49.16
2023-04-06T17:47:21.491Z,48.68
2023-04-06T17:49:49.346Z,50.17
2023-04-06T17:52:16.284Z,50.98
2023-04-06T17:54:43.306Z,52.06
2023-04-06T17:57:10.028Z,51.54
2023-04-06T17:59:36.787Z,51.91
2023-04-06T18:02:04.572Z,52.73
2023-04-06T18:04:31.587Z,52.89
2023-04-06T18:06:58.590Z,53.10
2023-04-06T18:11:53.244Z,55.79
2023-04-06T18:14:20.142Z,56.36
2023-04-06T18:16:46.845Z,56.25
2023-04-06T18:19:13.866Z,56.88
2023-04-06T18:21:40.558Z,57.70
2023-04-06T18:24:08.048Z,57.52
2023-04-06T18:26:37.338Z,57.74
2023-04-06T18:29:07.318Z,59.84
2023-04-06T18:31:37.484Z,59.78
2023-04-06T18:34:05.098Z,60.59
2023-04-06T18:36:32.235Z,61.12
2023-04-06T18:39:00.265Z,60.77
2023-04-06T18:41:29.981Z,63.50
2023-04-06T18:43:56.960Z,64.50
2023-04-06T18:46:25.214Z,65.16
2023-04-06T18:48:52.569Z,66.47
2023-04-06T18:51:19.481Z,67.18
2023-04-06T18:53:46.351Z,68.02
2023-04-06T18:56:19.022Z,67.24
2023-04-06T18:58:46.598Z,67.35
2023-04-06T19:01:29.412Z,66.23
2023-04-06T19:03:57.580Z,66.05
2023-04-06T19:06:27.623Z,66.97
2023-04-06T19:08:55.314Z,68.88
2023-04-06T19:11:25.436Z,69.70
2023-04-06T19:13:54.047Z,71.38
2023-04-06T19:16:21.030Z,71.68
2023-04-06T19:18:47.943Z,71.98
2023-04-06T19:21:19.573Z,70.31
2023-04-06T19:23:47.096Z,72.30
2023-04-06T19:26:15.364Z,72.37
2023-04-06T19:28:43.585Z,72.17
2023-04-06T19:31:13.998Z,72.60
2023-04-06T19:33:41.087Z,72.22
2023-04-06T19:36:08.727Z,71.92
2023-04-06T19:38:35.827Z,72.48
2023-04-06T19:41:02.723Z,71.99
2023-04-06T19:43:29.862Z,71.99
2023-04-06T19:45:56.914Z,71.60
2023-04-06T19:48:23.938Z,72.36
2023-04-06T19:50:53.987Z,71.16
2023-04-06T19:53:21.935Z,72.92
2023-04-06T19:55:48.757Z,72.92
2023-04-06T19:58:15.609Z,72.25
2023-04-06T20:00:42.427Z,72.62
2023-04-06T20:03:09.409Z,73.37
2023-04-06T20:05:36.583Z,73.18
2023-04-06T20:08:03.358Z,74.90
2023-04-06T20:10:30.998Z,75.70
2023-04-06T20:12:58.817Z,75.70
2023-04-06T20:15:25.752Z,75.77
2023-04-06T20:17:52.806Z,76.93
2023-04-06T20:20:19.663Z,76.48
2023-04-06T20:22:50.243Z,77.44
2023-04-06T20:25:18.446Z,77.71
2023-04-06T20:27:45.904Z,77.48
2023-04-06T20:30:16.332Z,77.58
2023-04-06T20:32:43.504Z,76.00
2023-04-06T20:35:10.437Z,77.04
2023-04-06T20:37:38.095Z,77.56
2023-04-06T20:40:05.899Z,77.94
2023-04-06T20:42:32.746Z,78.47
2023-04-06T20:44:59.770Z,78.30
2023-04-06T20:47:27.442Z,80.09
2023-04-06T20:49:54.816Z,79.31
2023-04-06T20:52:21.582Z,78.58
2023-04-06T20:54:48.915Z,80.05
2023-04-06T20:57:15.731Z,80.53
2023-04-06T20:59:42.714Z,80.61
2023-04-06T21:02:09.695Z,80.39
2023-04-06T21:04:37.352Z,82.46
2023-04-06T21:07:05.958Z,81.47
2023-04-06T21:09:36.038Z,81.16
2023-04-06T21:12:03.843Z,81.58
2023-04-06T21:14:30.846Z,81.21
2023-04-06T21:16:58.348Z,81.33
2023-04-06T21:19:28.230Z,82.96
2023-04-06T21:21:55.431Z,82.91
2023-04-06T21:24:22.296Z,83.15
2023-04-06T21:26:49.248Z,82.75
2023-04-06T21:29:16.202Z,83.01
2023-04-06T21:31:43.132Z,84.09
2023-04-06T21:34:13.669Z,84.89
2023-04-06T21:36:41.731Z,85.66
2023-04-06T21:39:08.984Z,85.07
2023-04-06T21:41:36.985Z,85.39
2023-04-06T21:44:03.974Z,86.32
2023-04-06T21:46:30.781Z,86.36
2023-04-06T21:48:57.489Z,87.89
2023-04-06T21:51:24.783Z,88.49
2023-04-06T21:53:54.534Z,88.79
2023-04-06T21:56:22.872Z,85.71
2023-04-06T21:58:50.465Z,85.74
2023-04-06T22:01:17.964Z,86.21
2023-04-06T22:03:45.642Z,86.00
2023-04-06T22:06:12.773Z,85.55
2023-04-06T22:08:39.568Z,86.19
2023-04-06T22:11:08.914Z,85.27
2023-04-06T22:13:36.467Z,85.69
2023-04-06T22:16:03.677Z,85.95
2023-04-06T22:18:31.444Z,86.56
2023-04-06T22:20:58.379Z,85.53
2023-04-06T22:23:26.032Z,84.31
2023-04-06T22:25:53.211Z,84.84
2023-04-06T22:28:20.027Z,83.59
2023-04-06T22:30:46.850Z,84.00
2023-04-06T22:33:13.679Z,86.15
2023-04-06T22:35:40.728Z,83.73
2023-04-06T22:38:07.718Z,84.47
2023-04-06T22:40:34.606Z,84.92
2023-04-06T22:43:01.928Z,86.77
2023-04-06T22:45:28.660Z,86.57
2023-04-06T22:47:55.835Z,85.52
2023-04-06T22:50:22.916Z,85.92
2023-04-06T22:52:50.080Z,87.49
2023-04-06T22:55:17.349Z,87.73
2023-04-06T22:57:44.172Z,87.31
2023-04-06T23:00:12.705Z,87.01
2023-04-06T23:02:39.699Z,86.55
2023-04-06T23:05:07.274Z,86.71
2023-04-06T23:07:36.110Z,87.10
2023-04-06T23:10:03.578Z,87.08
2023-04-06T23:12:30.706Z,87.88
2023-04-06T23:14:57.998Z,87.28
2023-04-06T23:17:25.182Z,88.70
2023-04-06T23:19:52.521Z,89.14
2023-04-06T23:22:19.461Z,87.01
2023-04-06T23:24:46.735Z,85.72
2023-04-06T23:27:13.543Z,86.44
2023-04-06T23:29:40.456Z,87.01
2023-04-06T23:32:11.851Z,87.04
2023-04-06T23:34:50.951Z,87.77
2023-04-06T23:37:21.016Z,87.65
2023-04-06T23:39:48.813Z,88.09
2023-04-06T23:42:16.014Z,87.24
2023-04-06T23:44:44.328Z,87.18
2023-04-06T23:47:12.423Z,88.47
2023-04-06T23:49:40.589Z,88.44
2023-04-06T23:52:08.455Z,89.25
2023-04-06T23:54:35.214Z,88.85
2023-04-06T23:57:02.354Z,89.50
2023-04-06T23:59:29.200Z,90.53
